createdAt,value
2019-03-22T00:01:45.223Z,7.87
2019-03-22T00:04:17.439Z,7.50
2019-03-22T00:06:49.440Z,7.37
2019-03-22T00:09:21.433Z,7.92
2019-03-22T00:11:53.591Z,7.28
2019-03-22T00:14:25.527Z,7.37
2019-03-22T00:16:58.060Z,7.12
2019-03-22T00:19:31.123Z,8.18
2019-03-22T00:22:03.578Z,8.23
2019-03-22T00:24:35.489Z,8.70
2019-03-22T00:27:15.826Z,8.40
2019-03-22T00:29:41.499Z,8.45
2019-03-22T00:32:13.490Z,8.45
2019-03-22T00:34:45.416Z,8.10
2019-03-22T00:37:17.304Z,9.75
2019-03-22T00:39:49.665Z,7.97
2019-03-22T00:42:21.848Z,7.97
2019-03-22T00:44:53.708Z,8.30
2019-03-22T00:47:25.596Z,8.05
2019-03-22T00:49:57.552Z,7.83
2019-03-22T00:52:29.511Z,8.63
2019-03-22T00:55:01.504Z,7.92
2019-03-22T00:57:33.469Z,8.15
2019-03-22T01:00:06.788Z,7.28
2019-03-22T01:02:38.925Z,7.05
2019-03-22T01:05:12.666Z,8.33
2019-03-22T01:07:44.720Z,8.80
2019-03-22T01:10:17.490Z,8.83
2019-03-22T01:12:49.504Z,7.47
2019-03-22T01:15:21.433Z,8.08
2019-03-22T01:17:53.395Z,8.28
2019-03-22T01:20:25.390Z,8.55
2019-03-22T01:22:57.635Z,8.73
2019-03-22T01:25:29.559Z,8.35
2019-03-22T01:28:01.551Z,8.60
2019-03-22T01:30:33.414Z,9.45
2019-03-22T01:33:05.451Z,9.00
2019-03-22T01:35:37.355Z,8.35
2019-03-22T01:38:09.245Z,9.80
2019-03-22T01:40:41.307Z,8.73
2019-03-22T01:43:13.261Z,8.23
2019-03-22T01:45:45.254Z,8.80
2019-03-22T01:48:17.227Z,8.20
2019-03-22T01:50:49.631Z,8.48
2019-03-22T01:53:21.830Z,8.45
2019-03-22T01:55:54.177Z,8.78
2019-03-22T01:58:25.993Z,8.00
2019-03-22T02:00:58.067Z,8.28
2019-03-22T02:03:30.675Z,8.48
2019-03-22T02:06:02.940Z,8.10
2019-03-22T02:08:35.376Z,9.43
2019-03-22T02:11:07.485Z,7.58
2019-03-22T02:13:39.373Z,8.50
2019-03-22T02:16:11.438Z,7.87
2019-03-22T02:18:43.514Z,8.08
2019-03-22T02:21:15.355Z,7.92
2019-03-22T02:23:47.263Z,8.28
2019-03-22T02:26:19.668Z,8.00
2019-03-22T02:28:51.642Z,8.53
2019-03-22T02:31:24.002Z,7.47
2019-03-22T02:33:56.156Z,7.90
2019-03-22T02:36:28.181Z,8.13
2019-03-22T02:39:00.069Z,7.60
2019-03-22T02:41:33.536Z,8.48
2019-03-22T02:44:05.427Z,8.35
2019-03-22T02:46:37.262Z,8.73
2019-03-22T02:49:09.446Z,8.58
2019-03-22T02:51:41.413Z,8.50
2019-03-22T02:54:14.001Z,7.95
2019-03-22T02:56:46.053Z,7.90
2019-03-22T02:59:18.333Z,8.53
2019-03-22T03:01:50.323Z,7.85
2019-03-22T03:04:22.283Z,7.80
2019-03-22T03:06:54.716Z,8.10
2019-03-22T03:09:26.682Z,8.58
2019-03-22T03:11:58.733Z,8.73
2019-03-22T03:14:30.686Z,9.08
2019-03-22T03:17:02.893Z,7.92
2019-03-22T03:19:34.806Z,8.43
2019-03-22T03:22:06.995Z,8.33
2019-03-22T03:24:38.879Z,8.25
2019-03-22T03:27:10.933Z,7.65
2019-03-22T03:29:42.886Z,7.45
2019-03-22T03:32:14.846Z,8.10
2019-03-22T03:34:47.701Z,8.55
2019-03-22T03:37:19.822Z,8.78
2019-03-22T03:39:51.808Z,7.97
2019-03-22T03:42:24.252Z,7.95
2019-03-22T03:44:56.291Z,7.95
2019-03-22T03:47:28.591Z,7.55
2019-03-22T03:50:00.528Z,7.90
2019-03-22T03:52:32.488Z,8.03
2019-03-22T03:55:04.671Z,8.03
2019-03-22T03:57:36.614Z,8.10
2019-03-22T04:00:10.176Z,7.83
2019-03-22T04:02:42.268Z,8.63
2019-03-22T04:05:14.865Z,7.25
2019-03-22T04:07:47.228Z,7.92
2019-03-22T04:10:19.263Z,7.65
2019-03-22T04:12:51.249Z,7.55
2019-03-22T04:15:23.379Z,7.83
2019-03-22T04:17:55.645Z,8.00
2019-03-22T04:20:28.000Z,8.35
2019-03-22T04:23:00.351Z,7.83
2019-03-22T04:25:32.523Z,8.23
2019-03-22T04:28:04.659Z,8.60
2019-03-22T04:30:36.551Z,8.08
2019-03-22T04:33:08.550Z,8.60
2019-03-22T04:35:40.784Z,8.43
2019-03-22T04:38:12.840Z,8.50
2019-03-22T04:40:44.985Z,8.78
2019-03-22T04:43:17.070Z,8.08
2019-03-22T04:45:51.078Z,8.18
2019-03-22T04:48:30.589Z,8.25
2019-03-22T04:51:05.775Z,9.38
2019-03-22T04:53:52.433Z,9.25
2019-03-22T04:56:26.420Z,8.88
2019-03-22T04:59:00.251Z,10.20
2019-03-22T05:01:34.151Z,9.30
2019-03-22T05:04:09.290Z,8.93
2019-03-22T05:06:43.655Z,9.08
2019-03-22T05:09:18.304Z,9.63
2019-03-22T05:11:51.277Z,8.43
2019-03-22T05:14:25.890Z,9.58
2019-03-22T05:16:59.722Z,9.30
2019-03-22T05:19:36.201Z,9.20
2019-03-22T05:22:11.237Z,9.03
2019-03-22T05:24:47.544Z,9.10
2019-03-22T05:27:21.613Z,8.95
2019-03-22T05:29:56.514Z,9.43
2019-03-22T05:32:28.677Z,8.55
2019-03-22T05:35:00.716Z,8.60
2019-03-22T05:37:32.954Z,8.80
2019-03-22T05:40:05.513Z,9.23
2019-03-22T05:42:37.383Z,8.95
2019-03-22T05:45:09.766Z,9.55
2019-03-22T05:47:41.706Z,9.15
2019-03-22T05:50:13.602Z,9.03
2019-03-22T05:52:45.612Z,9.68
2019-03-22T05:55:17.629Z,10.98
2019-03-22T05:57:49.831Z,11.45
2019-03-22T06:00:21.810Z,10.98
2019-03-22T06:02:53.846Z,10.03
2019-03-22T06:05:25.947Z,10.35
2019-03-22T06:07:57.977Z,10.03
2019-03-22T06:10:30.228Z,11.50
2019-03-22T06:13:02.241Z,10.75
2019-03-22T06:15:34.217Z,11.20
2019-03-22T06:18:06.300Z,10.55
2019-03-22T06:20:38.261Z,11.08
2019-03-22T06:23:10.266Z,9.73
2019-03-22T06:25:42.127Z,11.12
2019-03-22T06:28:14.182Z,10.58
2019-03-22T06:30:46.222Z,10.13
2019-03-22T06:33:19.710Z,10.80
2019-03-22T06:35:52.023Z,9.40
2019-03-22T06:38:23.950Z,9.50
2019-03-22T06:40:55.921Z,10.65
2019-03-22T06:43:27.914Z,10.38
2019-03-22T06:45:59.866Z,9.98
2019-03-22T06:48:32.249Z,11.12
2019-03-22T06:51:04.236Z,10.72
2019-03-22T06:53:36.185Z,10.55
2019-03-22T06:56:08.100Z,11.20
2019-03-22T06:58:40.101Z,11.10
2019-03-22T07:01:12.022Z,10.23
2019-03-22T07:03:44.129Z,9.73
2019-03-22T07:06:16.095Z,9.25
2019-03-22T07:08:48.224Z,9.45
2019-03-22T07:11:20.018Z,8.90
2019-03-22T07:13:52.013Z,9.33
2019-03-22T07:16:24.047Z,8.43
2019-03-22T07:18:55.955Z,9.03
2019-03-22T07:21:28.893Z,9.40
2019-03-22T07:24:01.265Z,8.25
2019-03-22T07:26:34.088Z,8.40
2019-03-22T07:29:06.485Z,7.58
2019-03-22T07:31:38.607Z,7.75
2019-03-22T07:34:10.813Z,7.97
2019-03-22T07:36:42.819Z,8.63
2019-03-22T07:39:14.736Z,8.73
2019-03-22T07:41:46.751Z,8.80
2019-03-22T07:44:18.673Z,7.37
2019-03-22T07:46:50.719Z,7.60
2019-03-22T07:49:22.914Z,7.05
2019-03-22T07:51:55.055Z,7.12
2019-03-22T07:54:27.629Z,7.12
2019-03-22T07:57:00.092Z,7.33
2019-03-22T07:59:32.169Z,7.87
2019-03-22T08:02:04.419Z,8.08
2019-03-22T08:04:36.418Z,8.33
2019-03-22T08:07:08.803Z,8.60
2019-03-22T08:09:40.767Z,9.13
2019-03-22T08:12:12.772Z,8.28
2019-03-22T08:14:44.732Z,8.73
2019-03-22T08:17:16.781Z,9.75
2019-03-22T08:19:48.706Z,8.60
2019-03-22T08:22:20.701Z,8.78
2019-03-22T08:24:53.968Z,9.93
2019-03-22T08:27:25.827Z,8.63
2019-03-22T08:29:57.860Z,8.20
2019-03-22T08:32:29.787Z,7.75
2019-03-22T08:35:02.024Z,8.28
2019-03-22T08:37:34.054Z,9.40
2019-03-22T08:40:06.510Z,8.78
2019-03-22T08:42:38.553Z,8.48
2019-03-22T08:45:11.456Z,8.03
2019-03-22T08:47:43.588Z,8.00
2019-03-22T08:50:15.956Z,9.25
2019-03-22T08:52:47.921Z,8.65
2019-03-22T08:55:20.010Z,10.03
2019-03-22T08:57:52.017Z,9.18
2019-03-22T09:00:24.096Z,8.93
2019-03-22T09:02:56.110Z,9.65
2019-03-22T09:05:27.922Z,9.50
2019-03-22T09:08:00.013Z,9.05
2019-03-22T09:10:32.443Z,8.93
2019-03-22T09:13:04.444Z,9.88
2019-03-22T09:15:41.178Z,9.43
2019-03-22T09:18:10.154Z,8.95
2019-03-22T09:20:42.136Z,9.30
2019-03-22T09:23:14.477Z,9.18
2019-03-22T09:25:46.617Z,9.63
2019-03-22T09:28:18.782Z,9.73
2019-03-22T09:30:50.796Z,9.10
2019-03-22T09:33:22.850Z,8.88
2019-03-22T09:35:54.818Z,9.68
2019-03-22T09:38:28.578Z,9.08
2019-03-22T09:41:01.436Z,10.13
2019-03-22T09:43:33.756Z,9.70
2019-03-22T09:46:05.818Z,10.45
2019-03-22T09:48:37.991Z,9.15
2019-03-22T09:51:10.002Z,9.78
2019-03-22T09:53:42.007Z,10.23
2019-03-22T09:56:15.185Z,10.18
2019-03-22T09:58:47.576Z,10.50
2019-03-22T10:01:23.854Z,10.10
2019-03-22T10:03:53.344Z,9.75
2019-03-22T10:06:25.597Z,9.65
2019-03-22T10:08:57.683Z,9.68
2019-03-22T10:11:29.750Z,10.63
2019-03-22T10:14:01.839Z,10.38
2019-03-22T10:16:33.914Z,9.73
2019-03-22T10:19:05.875Z,10.10
2019-03-22T10:21:37.912Z,10.68
2019-03-22T10:24:10.045Z,10.25
2019-03-22T10:26:42.052Z,9.95
2019-03-22T10:29:14.094Z,10.78
2019-03-22T10:31:46.073Z,10.15
2019-03-22T10:34:18.030Z,9.58
2019-03-22T10:36:49.936Z,8.93
2019-03-22T10:39:21.884Z,8.68
2019-03-22T10:41:53.811Z,9.03
2019-03-22T10:44:26.116Z,7.78
2019-03-22T10:46:58.104Z,7.62
2019-03-22T10:49:30.171Z,8.65
2019-03-22T10:52:04.599Z,7.62
2019-03-22T10:54:36.180Z,5.62
2019-03-22T10:57:09.634Z,6.25
2019-03-22T10:59:41.650Z,6.58
2019-03-22T11:02:13.881Z,6.05
2019-03-22T11:04:45.962Z,6.47
2019-03-22T11:07:18.008Z,6.17
2019-03-22T11:09:49.963Z,6.50
2019-03-22T11:12:22.224Z,6.78
2019-03-22T11:14:54.229Z,6.85
2019-03-22T11:17:26.300Z,5.55
2019-03-22T11:19:58.913Z,5.35
2019-03-22T11:22:31.758Z,4.20
2019-03-22T11:25:04.912Z,5.55
2019-03-22T11:27:37.178Z,5.17
2019-03-22T11:30:12.832Z,6.12
2019-03-22T11:32:44.992Z,6.00
2019-03-22T11:35:17.613Z,6.05
2019-03-22T11:37:49.604Z,5.90
2019-03-22T11:40:22.589Z,5.45
2019-03-22T11:42:55.535Z,5.33
2019-03-22T11:45:27.623Z,5.70
2019-03-22T11:48:00.555Z,6.30
2019-03-22T11:50:33.005Z,6.33
2019-03-22T11:53:05.892Z,6.08
2019-03-22T11:55:37.900Z,5.55
2019-03-22T11:58:09.888Z,6.30
2019-03-22T12:00:41.899Z,5.87
2019-03-22T12:03:13.896Z,5.97
2019-03-22T12:05:46.003Z,5.45
2019-03-22T12:08:18.054Z,5.90
2019-03-22T12:10:50.548Z,4.85
2019-03-22T12:13:22.873Z,4.42
2019-03-22T12:15:55.389Z,5.00
2019-03-22T12:18:27.945Z,5.53
2019-03-22T12:21:00.112Z,5.65
2019-03-22T12:23:32.210Z,5.97
2019-03-22T12:26:06.505Z,6.17
2019-03-22T12:28:39.316Z,5.62
2019-03-22T12:31:11.662Z,5.83
2019-03-22T12:33:43.679Z,5.62
2019-03-22T12:36:15.718Z,5.72
2019-03-22T12:38:47.809Z,6.20
2019-03-22T12:41:19.780Z,5.42
2019-03-22T12:43:51.810Z,6.05
2019-03-22T12:46:23.874Z,6.45
2019-03-22T12:48:55.806Z,5.72
2019-03-22T12:51:28.030Z,5.90
2019-03-22T12:54:00.029Z,6.47
2019-03-22T12:56:32.108Z,6.03
2019-03-22T12:59:04.083Z,5.85
2019-03-22T13:01:36.006Z,6.58
2019-03-22T13:04:08.081Z,6.12
2019-03-22T13:06:40.149Z,5.22
2019-03-22T13:09:12.248Z,5.85
2019-03-22T13:11:44.203Z,5.72
2019-03-22T13:14:16.120Z,5.90
2019-03-22T13:16:48.140Z,6.20
2019-03-22T13:19:20.195Z,5.65
2019-03-22T13:21:52.136Z,5.47
2019-03-22T13:24:24.895Z,5.72
2019-03-22T13:26:56.895Z,6.08
2019-03-22T13:29:29.366Z,7.42
2019-03-22T13:32:01.793Z,6.60
2019-03-22T13:34:34.203Z,6.47
2019-03-22T13:37:06.228Z,6.92
2019-03-22T13:39:38.084Z,6.30
2019-03-22T13:42:10.087Z,6.55
2019-03-22T13:44:43.144Z,6.55
2019-03-22T13:47:15.190Z,7.12
2019-03-22T13:49:47.250Z,7.30
2019-03-22T13:52:19.244Z,7.30
2019-03-22T13:54:51.742Z,7.50
2019-03-22T13:57:23.751Z,8.05
2019-03-22T13:59:56.190Z,8.65
2019-03-22T14:02:28.254Z,8.63
2019-03-22T14:05:01.640Z,8.35
2019-03-22T14:07:34.043Z,8.43
2019-03-22T14:10:06.659Z,8.60
2019-03-22T14:12:38.846Z,7.80
2019-03-22T14:15:11.437Z,8.10
2019-03-22T14:17:43.803Z,8.65
2019-03-22T14:20:15.824Z,9.03
2019-03-22T14:22:48.931Z,9.18
2019-03-22T14:25:20.743Z,8.53
2019-03-22T14:27:52.858Z,9.20
2019-03-22T14:30:24.914Z,9.80
2019-03-22T14:32:57.392Z,8.85
2019-03-22T14:35:29.369Z,9.30
2019-03-22T14:38:01.751Z,9.10
2019-03-22T14:40:33.748Z,8.93
2019-03-22T14:43:05.848Z,8.50
2019-03-22T14:45:37.922Z,11.08
2019-03-22T14:48:09.987Z,11.03
2019-03-22T14:50:42.085Z,10.35
2019-03-22T14:53:14.114Z,11.53
2019-03-22T14:55:46.231Z,10.82
2019-03-22T14:58:18.348Z,11.28
2019-03-22T15:00:50.430Z,11.63
2019-03-22T15:03:26.874Z,11.18
2019-03-22T15:05:59.071Z,12.03
2019-03-22T15:08:31.106Z,11.18
2019-03-22T15:11:04.065Z,13.05
2019-03-22T15:13:48.243Z,13.22
2019-03-22T15:16:45.508Z,13.83
2019-03-22T15:19:35.280Z,17.07
2019-03-22T15:22:25.190Z,14.70
2019-03-22T15:25:15.071Z,15.13
2019-03-22T15:28:05.027Z,12.18
2019-03-22T15:30:53.544Z,13.95
2019-03-22T15:33:53.675Z,16.17
2019-03-22T15:36:43.513Z,12.18
2019-03-22T15:39:34.806Z,19.10
2019-03-22T15:42:06.894Z,13.80
2019-03-22T15:44:38.735Z,16.80
2019-03-22T15:47:10.869Z,21.68
2019-03-22T15:49:43.277Z,14.25
2019-03-22T15:52:15.301Z,24.98
2019-03-22T15:54:47.342Z,13.58
2019-03-22T15:57:19.679Z,14.98
2019-03-22T15:59:51.643Z,20.77
2019-03-22T16:02:23.733Z,24.37
2019-03-22T16:04:56.522Z,13.88
2019-03-22T16:07:28.962Z,11.43
2019-03-22T16:10:00.922Z,13.38
2019-03-22T16:12:33.066Z,12.23
2019-03-22T16:15:06.042Z,11.12
2019-03-22T16:17:38.136Z,11.70
2019-03-22T16:20:11.464Z,11.03
2019-03-22T16:22:43.633Z,11.05
2019-03-22T16:25:16.210Z,11.25
2019-03-22T16:27:48.297Z,11.85
2019-03-22T16:30:20.363Z,11.33
2019-03-22T16:32:52.457Z,12.23
2019-03-22T16:35:24.534Z,10.72
2019-03-22T16:37:56.577Z,11.50
2019-03-22T16:40:28.539Z,10.55
2019-03-22T16:43:01.071Z,12.80
2019-03-22T16:45:41.718Z,12.58
2019-03-22T16:48:14.811Z,12.73
2019-03-22T16:50:46.809Z,11.85
2019-03-22T16:53:18.894Z,13.10
2019-03-22T16:55:50.860Z,11.90
2019-03-22T16:58:22.879Z,18.27
2019-03-22T17:00:54.978Z,14.18
2019-03-22T17:03:27.119Z,19.32
2019-03-22T17:06:00.821Z,15.72
2019-03-22T17:08:33.987Z,15.55
2019-03-22T17:11:06.071Z,16.32
2019-03-22T17:13:38.196Z,18.32
2019-03-22T17:16:10.134Z,16.65
2019-03-22T17:18:42.609Z,16.77
2019-03-22T17:21:15.057Z,16.60
2019-03-22T17:23:47.142Z,16.57
2019-03-22T17:26:19.067Z,17.73
2019-03-22T17:28:52.154Z,16.25
2019-03-22T17:31:24.079Z,17.40
2019-03-22T17:33:56.019Z,17.32
2019-03-22T17:36:28.278Z,18.30
2019-03-22T17:39:00.313Z,15.75
2019-03-22T17:41:33.658Z,15.85
2019-03-22T17:44:05.999Z,17.35
2019-03-22T17:46:37.998Z,17.62
2019-03-22T17:49:10.303Z,16.77
2019-03-22T17:51:42.338Z,17.77
2019-03-22T17:54:15.348Z,15.93
2019-03-22T17:56:47.461Z,17.95
2019-03-22T17:59:21.175Z,17.02
2019-03-22T18:01:53.171Z,17.65
2019-03-22T18:04:28.586Z,17.48
2019-03-22T18:07:00.685Z,16.10
2019-03-22T18:09:33.176Z,17.85
2019-03-22T18:12:05.237Z,16.97
2019-03-22T18:14:37.904Z,18.12
2019-03-22T18:17:09.953Z,17.35
2019-03-22T18:19:41.867Z,15.98
2019-03-22T18:22:13.904Z,15.58
2019-03-22T18:24:46.413Z,12.82
2019-03-22T18:27:18.406Z,12.95
2019-03-22T18:29:51.165Z,15.18
2019-03-22T18:32:23.196Z,14.38
2019-03-22T18:34:55.511Z,13.95
2019-03-22T18:37:27.988Z,15.00
2019-03-22T18:39:59.911Z,15.10
2019-03-22T18:42:32.262Z,27.20
2019-03-22T18:45:05.635Z,12.25
2019-03-22T18:47:37.718Z,12.93
2019-03-22T18:50:10.407Z,13.43
2019-03-22T18:52:42.501Z,14.07
2019-03-22T18:55:14.573Z,14.70
2019-03-22T18:57:46.494Z,13.90
2019-03-22T19:00:18.923Z,12.45
2019-03-22T19:02:51.187Z,13.72
2019-03-22T19:05:23.406Z,13.40
2019-03-22T19:07:55.566Z,15.20
2019-03-22T19:10:27.498Z,16.40
2019-03-22T19:12:59.515Z,14.87
2019-03-22T19:15:31.858Z,14.28
2019-03-22T19:18:04.244Z,16.25
2019-03-22T19:20:36.618Z,14.70
2019-03-22T19:23:08.976Z,14.60
2019-03-22T19:25:41.092Z,15.00
2019-03-22T19:28:13.613Z,15.78
2019-03-22T19:30:45.998Z,14.90
2019-03-22T19:33:17.868Z,13.78
2019-03-22T19:35:49.804Z,16.32
2019-03-22T19:38:22.063Z,15.48
2019-03-22T19:40:54.409Z,14.78
2019-03-22T19:43:26.748Z,15.38
2019-03-22T19:45:58.752Z,16.12
2019-03-22T19:48:30.582Z,15.48
2019-03-22T19:51:02.915Z,16.35
2019-03-22T19:53:35.398Z,14.98
2019-03-22T19:56:07.885Z,19.25
2019-03-22T19:58:39.817Z,20.32
2019-03-22T20:01:11.836Z,19.67
2019-03-22T20:03:44.052Z,18.40
2019-03-22T20:06:16.079Z,19.48
2019-03-22T20:08:49.069Z,17.55
2019-03-22T20:11:21.143Z,16.50
2019-03-22T20:13:53.014Z,18.40
2019-03-22T20:16:25.030Z,15.85
2019-03-22T20:18:57.008Z,15.78
2019-03-22T20:21:29.016Z,15.43
2019-03-22T20:24:01.163Z,15.58
2019-03-22T20:26:33.768Z,14.53
2019-03-22T20:29:06.028Z,15.88
2019-03-22T20:31:37.950Z,15.43
2019-03-22T20:34:10.363Z,15.93
2019-03-22T20:36:43.786Z,14.63
2019-03-22T20:39:16.939Z,14.20
2019-03-22T20:41:48.911Z,13.75
2019-03-22T20:44:21.169Z,13.40
2019-03-22T20:46:53.253Z,11.95
2019-03-22T20:49:25.621Z,12.07
2019-03-22T20:51:57.839Z,12.07
2019-03-22T20:54:29.672Z,11.38
2019-03-22T20:57:01.605Z,12.18
2019-03-22T20:59:33.872Z,11.97
2019-03-22T21:02:05.946Z,12.98
2019-03-22T21:04:38.184Z,13.28
2019-03-22T21:07:10.131Z,12.58
2019-03-22T21:09:42.134Z,12.78
2019-03-22T21:12:17.123Z,12.73
2019-03-22T21:14:48.967Z,13.05
2019-03-22T21:17:21.095Z,13.00
2019-03-22T21:19:53.369Z,13.50
2019-03-22T21:22:25.303Z,13.03
2019-03-22T21:24:57.592Z,12.80
2019-03-22T21:27:29.944Z,12.35
2019-03-22T21:30:01.912Z,11.88
2019-03-22T21:32:44.468Z,14.60
2019-03-22T21:35:08.718Z,13.85
2019-03-22T21:37:40.735Z,13.40
2019-03-22T21:40:14.125Z,15.05
2019-03-22T21:42:46.122Z,13.58
2019-03-22T21:45:18.196Z,13.25
2019-03-22T21:47:50.885Z,12.65
2019-03-22T21:50:22.818Z,12.15
2019-03-22T21:52:55.011Z,12.33
2019-03-22T21:55:27.488Z,11.73
2019-03-22T21:57:59.481Z,12.18
2019-03-22T22:00:31.574Z,12.33
2019-03-22T22:03:03.558Z,12.78
2019-03-22T22:05:35.692Z,12.43
2019-03-22T22:08:09.832Z,12.58
2019-03-22T22:10:42.112Z,12.47
2019-03-22T22:13:14.135Z,12.43
2019-03-22T22:15:48.186Z,13.93
2019-03-22T22:18:20.254Z,14.20
2019-03-22T22:20:52.364Z,13.28
2019-03-22T22:23:24.461Z,12.00
2019-03-22T22:25:56.531Z,12.70
2019-03-22T22:28:29.178Z,13.60
2019-03-22T22:31:01.127Z,13.70
2019-03-22T22:33:33.474Z,13.15
2019-03-22T22:36:06.129Z,12.90
2019-03-22T22:38:38.058Z,12.70
2019-03-22T22:41:10.936Z,11.80
2019-03-22T22:43:43.477Z,12.20
2019-03-22T22:46:15.492Z,13.03
2019-03-22T22:48:47.813Z,12.85
2019-03-22T22:51:19.848Z,12.70
2019-03-22T22:53:51.808Z,12.68
2019-03-22T22:56:23.823Z,13.25
2019-03-22T22:58:55.808Z,12.30
2019-03-22T23:01:28.551Z,11.97
2019-03-22T23:04:00.456Z,13.08
2019-03-22T23:06:33.722Z,14.50
2019-03-22T23:09:06.774Z,13.32
2019-03-22T23:11:40.273Z,12.75
2019-03-22T23:14:12.813Z,12.33
2019-03-22T23:16:44.851Z,12.45
2019-03-22T23:19:16.765Z,12.65
2019-03-22T23:21:48.769Z,12.65
2019-03-22T23:24:21.118Z,12.00
2019-03-22T23:26:53.132Z,12.23
2019-03-22T23:29:24.945Z,11.78
2019-03-22T23:31:56.959Z,12.85
2019-03-22T23:34:28.955Z,12.80
2019-03-22T23:37:01.052Z,12.68
2019-03-22T23:39:32.945Z,13.80
2019-03-22T23:42:04.945Z,10.82
2019-03-22T23:44:37.922Z,12.03
2019-03-22T23:47:10.332Z,11.83
2019-03-22T23:49:42.628Z,12.00
2019-03-22T23:52:14.688Z,11.25
2019-03-22T23:54:47.018Z,11.53
2019-03-22T23:57:19.025Z,11.73
2019-03-22T23:59:50.853Z,12.58
